Time;durP1;ratioP1;P1;durP2;ratioP2;P2;SDS_P1;SDS_P2;PMS_P1;PMS_P2;Temp;Humidity;BMP_temperature;BMP_pressure;BME280_temperature;BME280_humidity;BME280_pressure;Samples;Min_cycle;Max_cycle;Signal;HPM_P1;HPM_P2
2022/10/21 00:01:56;;;;;;;3.37;2.80;;;11.80;97.30;;;;;;5032289;28;20186;-81
2022/10/21 00:04:21;;;;;;;4.70;2.43;;;11.70;97.30;;;;;;5032132;28;20180;-81
2022/10/21 00:06:47;;;;;;;9.73;4.00;;;11.60;97.30;;;;;;5035046;28;20203;-81
2022/10/21 00:11:42;;;;;;;1.97;1.87;;;11.50;97.30;;;;;;5070136;28;20208;-82
2022/10/21 00:14:08;;;;;;;3.63;2.33;;;11.50;97.30;;;;;;5055991;28;20416;-85
2022/10/21 00:16:33;;;;;;;7.40;2.33;;;11.60;97.30;;;;;;5046733;28;20414;-84
2022/10/21 00:18:59;;;;;;;1.77;1.67;;;11.60;97.30;;;;;;5058715;28;20287;-86
2022/10/21 00:21:24;;;;;;;2.60;2.33;;;11.60;97.30;;;;;;5019654;28;20188;-84
2022/10/21 00:23:50;;;;;;;3.07;2.93;;;11.60;97.30;;;;;;5020098;28;20177;-84
2022/10/21 00:26:17;;;;;;;5.50;2.83;;;11.60;97.30;;;;;;5020024;28;20259;-80
2022/10/21 00:28:42;;;;;;;3.30;2.20;;;11.50;97.30;;;;;;5037822;28;20667;-83
2022/10/21 00:31:10;;;;;;;3.87;1.80;;;11.60;97.30;;;;;;5018401;28;20450;-85
2022/10/21 00:33:36;;;;;;;5.00;3.07;;;11.50;97.30;;;;;;5018710;28;20173;-83
2022/10/21 00:36:04;;;;;;;2.27;2.07;;;11.60;97.30;;;;;;5018779;28;20426;-83
2022/10/21 00:38:31;;;;;;;4.40;2.27;;;11.60;97.30;;;;;;5035662;28;20488;-85
2022/10/21 00:40:57;;;;;;;1.83;1.73;;;11.60;97.30;;;;;;5017372;28;20989;-83
2022/10/21 00:43:23;;;;;;;2.00;1.90;;;11.50;97.30;;;;;;5017659;28;20500;-84
2022/10/21 00:45:56;;;;;;;3.63;3.50;;;11.50;97.30;;;;;;5034987;28;20467;-87
2022/10/21 00:48:33;;;;;;;1.33;1.23;;;11.50;97.30;;;;;;5018561;28;20431;-83
2022/10/21 00:51:13;;;;;;;2.60;1.80;;;11.50;97.30;;;;;;5019201;28;20429;-83
2022/10/21 00:53:43;;;;;;;3.53;2.13;;;11.50;97.30;;;;;;5035991;28;20411;-83
2022/10/21 00:56:13;;;;;;;4.30;2.67;;;11.60;97.30;;;;;;5018207;28;20439;-83
2022/10/21 00:58:39;;;;;;;3.63;3.30;;;11.60;97.30;;;;;;5036996;28;20463;-82
2022/10/21 01:01:07;;;;;;;5.27;2.30;;;11.60;97.30;;;;;;5018740;28;20461;-83
2022/10/21 01:03:34;;;;;;;2.53;2.10;;;11.50;97.30;;;;;;5018189;28;20271;-84
2022/10/21 01:06:05;;;;;;;3.03;1.60;;;11.60;97.30;;;;;;5017458;28;20977;-84
2022/10/21 01:08:31;;;;;;;5.30;3.20;;;11.60;97.30;;;;;;5017777;28;20558;-84
2022/10/21 01:10:58;;;;;;;2.73;2.53;;;11.50;97.30;;;;;;5036036;28;20459;-84
2022/10/21 01:13:50;;;;;;;2.07;1.93;;;11.50;97.30;;;;;;5017911;28;20177;-83
2022/10/21 01:16:40;;;;;;;4.60;3.40;;;11.50;97.30;;;;;;5017766;28;20415;-83
2022/10/21 01:19:24;;;;;;;2.97;2.10;;;11.50;97.30;;;;;;5016444;28;20512;-83
2022/10/21 01:21:54;;;;;;;2.83;1.83;;;11.60;97.30;;;;;;5036052;28;20404;-81
2022/10/21 01:24:20;;;;;;;3.20;2.33;;;11.60;97.30;;;;;;5018518;28;20469;-84
2022/10/21 01:27:23;;;;;;;4.30;2.53;;;11.50;97.30;;;;;;5017705;28;20831;-85
2022/10/21 01:30:06;;;;;;;5.80;2.33;;;11.50;97.30;;;;;;5018725;28;20473;-83
2022/10/21 01:32:44;;;;;;;6.67;5.00;;;11.50;97.30;;;;;;5018666;28;20423;-84
2022/10/21 01:35:32;;;;;;;4.00;3.33;;;11.40;97.30;;;;;;5036977;28;20417;-85
2022/10/21 01:38:09;;;;;;;5.20;3.23;;;11.30;97.30;;;;;;5019772;28;20447;-84
2022/10/21 01:40:56;;;;;;;2.53;2.33;;;11.20;97.30;;;;;;5019018;28;20430;-82
2022/10/21 01:43:30;;;;;;;2.30;2.10;;;11.20;97.30;;;;;;5019790;28;20465;-84
2022/10/21 01:46:05;;;;;;;3.57;2.27;;;11.20;97.30;;;;;;5018853;28;20580;-83
2022/10/21 01:48:39;;;;;;;3.17;2.97;;;11.20;97.30;;;;;;5018442;28;20449;-84
2022/10/21 01:51:06;;;;;;;2.40;2.20;;;11.20;97.30;;;;;;5018667;28;20426;-83
2022/10/21 01:53:52;;;;;;;4.50;2.70;;;11.40;97.30;;;;;;5018751;28;20423;-83
2022/10/21 01:56:19;;;;;;;4.60;3.50;;;11.40;97.30;;;;;;5020136;28;20435;-84
2022/10/21 01:58:47;;;;;;;2.80;2.50;;;11.50;97.30;;;;;;5019764;28;20446;-84
2022/10/21 02:01:14;;;;;;;4.83;3.37;;;11.50;97.30;;;;;;5030480;28;20430;-87
2022/10/21 02:03:42;;;;;;;2.93;1.67;;;11.50;97.30;;;;;;5031975;28;20478;-85
2022/10/21 02:06:08;;;;;;;4.13;2.50;;;11.40;97.30;;;;;;5032908;28;20435;-84
2022/10/21 02:08:33;;;;;;;4.27;2.50;;;11.40;97.30;;;;;;5033164;28;20451;-83
2022/10/21 02:11:04;;;;;;;3.00;2.37;;;11.30;97.30;;;;;;5028114;28;20235;-83
2022/10/21 02:13:34;;;;;;;6.50;3.20;;;11.20;97.30;;;;;;5020036;28;20172;-83
2022/10/21 02:16:06;;;;;;;3.43;1.80;;;11.20;97.30;;;;;;5020496;28;20427;-83
2022/10/21 02:18:31;;;;;;;5.87;2.37;;;11.10;97.30;;;;;;5019728;28;20489;-83
2022/10/21 02:21:05;;;;;;;2.60;2.27;;;11.10;97.30;;;;;;5020432;28;20828;-81
2022/10/21 02:23:34;;;;;;;2.83;2.50;;;11.20;97.30;;;;;;5020013;28;20172;-83
2022/10/21 02:26:00;;;;;;;3.83;1.90;;;11.20;97.30;;;;;;5019392;28;20462;-83
2022/10/21 02:28:26;;;;;;;2.43;2.23;;;11.20;97.30;;;;;;5036792;28;20423;-86
2022/10/21 02:31:01;;;;;;;6.93;4.50;;;11.20;97.30;;;;;;5038217;28;20418;-84
2022/10/21 02:33:47;;;;;;;3.00;2.67;;;11.20;97.30;;;;;;5023114;28;20156;-83
2022/10/21 02:36:16;;;;;;;2.33;2.17;;;11.30;97.30;;;;;;5023295;28;20411;-84
2022/10/21 02:38:51;;;;;;;2.37;2.20;;;11.30;97.30;;;;;;5040243;28;20428;-83
2022/10/21 02:41:21;;;;;;;2.40;2.20;;;11.30;97.30;;;;;;5023309;28;20400;-83
2022/10/21 02:43:50;;;;;;;4.23;2.43;;;11.40;97.30;;;;;;5022925;28;20439;-84
2022/10/21 02:46:16;;;;;;;3.47;3.27;;;11.50;97.30;;;;;;5021664;28;20478;-83
2022/10/21 02:48:44;;;;;;;2.30;2.10;;;11.60;97.30;;;;;;5021921;28;20454;-84
2022/10/21 02:51:10;;;;;;;5.77;2.83;;;11.60;97.30;;;;;;5021442;28;20184;-84
2022/10/21 02:53:36;;;;;;;1.73;1.60;;;11.70;97.30;;;;;;5021551;28;20412;-86
2022/10/21 02:56:02;;;;;;;4.60;3.43;;;11.80;97.30;;;;;;5021164;28;20415;-84
2022/10/21 02:58:28;;;;;;;8.43;3.07;;;11.80;97.30;;;;;;5021801;28;20196;-85
2022/10/21 03:00:53;;;;;;;8.03;3.17;;;11.70;97.30;;;;;;5033378;28;20425;-85
2022/10/21 03:03:19;;;;;;;4.33;2.67;;;11.70;97.30;;;;;;5059237;28;20173;-91
2022/10/21 03:05:44;;;;;;;2.33;2.13;;;11.60;97.30;;;;;;5042155;28;20208;-82
2022/10/21 03:08:10;;;;;;;3.53;2.57;;;11.50;97.30;;;;;;5020603;28;20204;-84
2022/10/21 03:10:36;;;;;;;10.13;2.67;;;11.50;97.30;;;;;;5019159;28;20228;-84
2022/10/21 03:13:01;;;;;;;4.63;3.03;;;11.50;97.30;;;;;;5019281;28;20667;-84
2022/10/21 03:15:27;;;;;;;3.87;2.50;;;11.50;97.30;;;;;;5018379;28;20199;-84
2022/10/21 03:17:52;;;;;;;13.63;2.83;;;11.40;97.30;;;;;;5018458;28;20232;-83
2022/10/21 03:20:18;;;;;;;2.73;2.50;;;11.50;97.30;;;;;;5018680;28;20168;-84
2022/10/21 03:22:44;;;;;;;4.97;2.67;;;11.50;97.30;;;;;;5036751;28;20168;-82
2022/10/21 03:25:10;;;;;;;5.57;3.00;;;11.50;97.30;;;;;;5035907;28;20200;-85
2022/10/21 03:27:35;;;;;;;2.60;1.83;;;11.50;97.30;;;;;;5018310;28;20651;-86
2022/10/21 03:30:03;;;;;;;2.20;1.77;;;11.50;97.30;;;;;;5018427;28;20184;-80
2022/10/21 03:32:28;;;;;;;2.97;2.80;;;11.50;97.30;;;;;;5036439;28;20177;-83
2022/10/21 03:34:54;;;;;;;2.60;1.80;;;11.60;97.30;;;;;;5017907;28;20495;-84
2022/10/21 03:37:19;;;;;;;2.23;2.10;;;11.60;97.30;;;;;;5019394;28;20267;-79
2022/10/21 03:39:45;;;;;;;2.43;2.20;;;11.60;97.30;;;;;;5036684;28;20222;-83
2022/10/21 03:42:11;;;;;;;2.90;2.40;;;11.60;97.30;;;;;;5036108;28;20223;-82
2022/10/21 03:44:36;;;;;;;3.80;3.10;;;11.50;97.30;;;;;;5019081;28;20652;-82
2022/10/21 03:47:02;;;;;;;2.80;2.60;;;11.50;97.30;;;;;;5018933;28;20180;-85
2022/10/21 03:49:27;;;;;;;3.83;3.37;;;11.50;97.30;;;;;;5036856;28;20196;-84
2022/10/21 03:51:53;;;;;;;5.83;2.93;;;11.50;97.30;;;;;;5019281;28;20176;-81
2022/10/21 03:54:18;;;;;;;1.87;1.70;;;11.50;97.30;;;;;;5019045;28;20199;-84
2022/10/21 03:56:44;;;;;;;1.90;1.80;;;11.50;97.30;;;;;;5018861;28;20184;-84
2022/10/21 03:59:09;;;;;;;2.73;1.70;;;11.50;97.30;;;;;;5018350;28;20679;-83
2022/10/21 04:01:36;;;;;;;2.40;2.20;;;11.60;97.30;;;;;;5018422;28;20184;-79
2022/10/21 04:04:02;;;;;;;4.87;2.97;;;11.60;97.30;;;;;;5018022;28;20184;-83
2022/10/21 04:06:27;;;;;;;3.83;3.17;;;11.60;97.30;;;;;;5018583;28;20455;-81
2022/10/21 04:08:53;;;;;;;1.30;1.20;;;11.50;97.30;;;;;;5018873;28;20199;-83
2022/10/21 04:11:18;;;;;;;4.27;2.13;;;11.50;97.30;;;;;;5036783;28;20252;-84
2022/10/21 04:13:44;;;;;;;5.80;3.00;;;11.50;97.30;;;;;;5018958;28;20180;-83
2022/10/21 04:16:14;;;;;;;5.03;2.90;;;11.50;97.30;;;;;;5018950;28;20234;-83
2022/10/21 04:18:39;;;;;;;2.63;2.43;;;11.50;97.30;;;;;;5018587;28;20200;-83
2022/10/21 04:21:05;;;;;;;5.43;3.43;;;11.60;97.30;;;;;;5017862;28;20427;-85
2022/10/21 04:23:30;;;;;;;5.00;2.60;;;11.60;97.30;;;;;;5018151;28;20910;-79
2022/10/21 04:25:56;;;;;;;4.37;2.00;;;11.60;97.30;;;;;;5036411;28;20204;-83
2022/10/21 04:28:22;;;;;;;3.57;3.03;;;11.60;97.30;;;;;;5018679;28;20207;-81
2022/10/21 04:30:49;;;;;;;7.90;2.37;;;11.60;97.30;;;;;;5036356;28;20175;-83
2022/10/21 04:33:15;;;;;;;3.40;2.57;;;11.60;97.30;;;;;;5018137;28;20187;-83
2022/10/21 04:35:40;;;;;;;3.30;2.80;;;11.70;97.30;;;;;;5017821;28;20922;-84
2022/10/21 04:38:06;;;;;;;2.37;1.60;;;11.70;97.30;;;;;;5017402;28;20197;-84
2022/10/21 04:40:32;;;;;;;3.13;2.47;;;11.70;97.30;;;;;;5016533;28;20188;-79
2022/10/21 04:42:57;;;;;;;3.27;2.20;;;11.70;97.30;;;;;;5018104;28;20526;-84
2022/10/21 04:45:23;;;;;;;6.20;3.17;;;11.70;97.30;;;;;;5035493;28;20224;-83
2022/10/21 04:47:48;;;;;;;2.20;1.83;;;11.70;97.30;;;;;;5018199;28;20207;-86
2022/10/21 04:50:14;;;;;;;9.03;2.33;;;11.70;97.30;;;;;;5036045;28;20173;-81
2022/10/21 04:52:40;;;;;;;4.43;3.40;;;11.80;97.30;;;;;;5016811;28;20265;-84
2022/10/21 04:55:06;;;;;;;2.37;2.17;;;11.80;97.30;;;;;;5032670;28;20674;-87
2022/10/21 04:57:31;;;;;;;4.30;3.07;;;11.90;97.30;;;;;;5015522;28;20189;-86
2022/10/21 04:59:57;;;;;;;1.90;1.60;;;12.00;97.30;;;;;;5017577;28;21079;-84
2022/10/21 05:02:40;;;;;;;6.37;2.63;;;12.00;97.30;;;;;;5017009;28;20187;-84
2022/10/21 05:05:06;;;;;;;4.50;2.03;;;12.10;97.30;;;;;;5034935;28;20188;-84
2022/10/21 05:07:31;;;;;;;2.07;1.93;;;12.10;97.30;;;;;;5034712;28;20794;-84
2022/10/21 05:09:57;;;;;;;2.50;1.90;;;12.20;97.30;;;;;;5017180;28;20454;-83
2022/10/21 05:12:22;;;;;;;6.33;4.10;;;12.20;97.30;;;;;;5017897;28;20635;-85
2022/10/21 05:14:48;;;;;;;4.20;3.50;;;12.20;97.30;;;;;;5019866;28;20184;-84
2022/10/21 05:17:13;;;;;;;5.97;3.73;;;12.20;97.30;;;;;;5036864;28;20186;-84
2022/10/21 05:19:39;;;;;;;4.43;3.13;;;12.10;97.30;;;;;;5037396;28;20199;-84
2022/10/21 05:22:04;;;;;;;1.93;1.83;;;12.10;97.30;;;;;;5055602;28;20184;-84
2022/10/21 05:24:30;;;;;;;8.23;5.33;;;12.10;97.30;;;;;;5037887;28;20179;-83
2022/10/21 05:26:55;;;;;;;2.90;2.70;;;12.10;97.30;;;;;;5038334;28;20179;-87
2022/10/21 05:29:21;;;;;;;3.53;2.87;;;12.00;97.30;;;;;;5038286;28;20334;-83
2022/10/21 05:31:46;;;;;;;4.20;3.07;;;12.00;97.30;;;;;;5033185;28;20168;-84
2022/10/21 05:34:12;;;;;;;5.43;4.67;;;11.90;97.30;;;;;;5027761;28;20181;-83
2022/10/21 05:36:38;;;;;;;3.23;1.83;;;11.90;97.30;;;;;;5038809;28;20172;-82
2022/10/21 05:39:03;;;;;;;15.20;3.67;;;11.90;97.30;;;;;;5038215;28;20207;-84
2022/10/21 05:41:29;;;;;;;2.53;2.30;;;12.00;97.30;;;;;;5036673;28;20179;-83
2022/10/21 05:43:54;;;;;;;4.93;3.63;;;12.00;97.30;;;;;;5036941;28;20547;-84
2022/10/21 05:46:20;;;;;;;2.17;2.03;;;12.00;97.30;;;;;;5037408;28;20290;-82
2022/10/21 05:48:45;;;;;;;8.83;3.03;;;12.00;97.30;;;;;;5057420;28;20255;-84
2022/10/21 05:51:11;;;;;;;2.93;2.73;;;12.00;97.30;;;;;;5039568;28;20663;-83
2022/10/21 05:53:38;;;;;;;2.70;2.50;;;12.00;97.30;;;;;;5039505;28;20176;-80
2022/10/21 05:56:06;;;;;;;4.07;2.37;;;12.10;97.30;;;;;;5039370;28;20172;-84
2022/10/21 05:58:33;;;;;;;7.50;3.73;;;12.10;97.30;;;;;;5036439;28;20751;-83
2022/10/21 06:01:00;;;;;;;3.73;2.47;;;12.20;97.30;;;;;;5019312;28;20415;-83
2022/10/21 06:03:31;;;;;;;2.60;2.23;;;12.20;97.30;;;;;;5017692;28;20447;-84
2022/10/21 06:05:58;;;;;;;9.73;3.27;;;12.20;97.30;;;;;;5038349;28;20477;-82
2022/10/21 06:11:14;;;;;;;4.63;3.07;;;12.20;97.30;;;;;;5035375;28;20455;-84
2022/10/21 06:13:40;;;;;;;2.77;2.63;;;12.20;97.30;;;;;;5038266;28;20395;-81
2022/10/21 06:16:07;;;;;;;9.10;2.70;;;12.30;97.30;;;;;;5053084;28;20506;-82
2022/10/21 06:18:33;;;;;;;3.33;3.13;;;12.30;97.30;;;;;;5036513;28;20447;-85
2022/10/21 06:20:58;;;;;;;8.53;4.67;;;12.30;97.30;;;;;;5036233;28;20819;-82
2022/10/21 06:23:24;;;;;;;5.83;2.30;;;12.40;97.30;;;;;;5036558;28;20176;-84
2022/10/21 06:25:58;;;;;;;2.37;2.03;;;12.30;97.30;;;;;;5035669;28;20208;-84
2022/10/21 06:28:26;;;;;;;4.93;3.00;;;12.30;97.30;;;;;;5035626;28;20493;-83
2022/10/21 06:30:52;;;;;;;2.37;2.17;;;12.30;97.30;;;;;;5036571;28;20914;-84
2022/10/21 06:33:17;;;;;;;4.43;4.13;;;12.30;97.30;;;;;;5036105;28;20430;-83
2022/10/21 06:35:43;;;;;;;14.53;2.73;;;12.30;97.30;;;;;;5035500;28;20218;-82
2022/10/21 06:38:09;;;;;;;6.77;4.17;;;12.30;97.30;;;;;;5035556;28;20187;-84
2022/10/21 06:40:34;;;;;;;3.27;2.80;;;12.20;97.30;;;;;;5036344;28;20227;-85
2022/10/21 06:43:00;;;;;;;7.73;4.70;;;12.20;97.30;;;;;;5035190;28;20263;-84
2022/10/21 06:45:26;;;;;;;5.53;4.53;;;12.20;97.30;;;;;;5035001;28;20385;-83
2022/10/21 06:47:51;;;;;;;4.37;4.10;;;12.10;97.30;;;;;;5035053;28;20175;-84
2022/10/21 06:50:17;;;;;;;23.23;2.50;;;12.10;97.30;;;;;;5035718;28;20571;-84
2022/10/21 06:52:43;;;;;;;6.10;3.63;;;12.10;97.30;;;;;;5036328;28;20169;-84
2022/10/21 06:55:09;;;;;;;2.60;2.43;;;12.10;97.30;;;;;;5035763;28;20179;-85
2022/10/21 06:57:35;;;;;;;6.03;4.50;;;12.10;97.30;;;;;;5035758;28;20180;-83
2022/10/21 07:00:00;;;;;;;2.83;2.63;;;12.20;97.30;;;;;;5054548;28;20236;-86
2022/10/21 07:02:26;;;;;;;21.43;3.90;;;12.20;97.30;;;;;;5059882;28;20172;-88
2022/10/21 07:04:52;;;;;;;2.63;2.43;;;12.20;97.30;;;;;;5055072;28;20550;-82
2022/10/21 07:07:20;;;;;;;3.10;2.53;;;12.20;97.30;;;;;;5037592;28;20184;-81
2022/10/21 07:09:46;;;;;;;3.37;2.40;;;12.20;97.30;;;;;;5035320;28;20679;-83
2022/10/21 07:12:12;;;;;;;3.53;3.07;;;12.30;97.30;;;;;;5034455;28;20434;-84
2022/10/21 07:14:38;;;;;;;6.87;2.53;;;12.20;97.30;;;;;;5034646;28;20211;-85
2022/10/21 07:17:04;;;;;;;8.33;3.60;;;12.30;97.30;;;;;;5034785;28;20424;-84
2022/10/21 07:19:30;;;;;;;3.80;3.30;;;12.30;97.30;;;;;;5036303;28;20196;-84
2022/10/21 07:21:56;;;;;;;2.30;2.10;;;12.30;97.30;;;;;;5035361;28;20180;-84
2022/10/21 07:24:21;;;;;;;3.00;2.80;;;12.30;97.30;;;;;;5035647;28;20481;-84
2022/10/21 07:26:47;;;;;;;4.70;2.73;;;12.30;97.30;;;;;;5036206;28;20216;-83
2022/10/21 07:29:12;;;;;;;8.03;5.37;;;12.40;97.30;;;;;;5036947;28;20605;-82
2022/10/21 07:31:38;;;;;;;12.87;4.67;;;12.50;97.30;;;;;;5036513;28;20176;-84
2022/10/21 07:34:05;;;;;;;2.70;2.50;;;12.50;97.30;;;;;;5035650;28;20173;-84
2022/10/21 07:36:38;;;;;;;7.90;2.80;;;12.60;97.30;;;;;;5034764;28;20241;-82
2022/10/21 07:39:08;;;;;;;5.17;3.87;;;12.60;97.30;;;;;;5035593;28;20474;-84
2022/10/21 07:41:41;;;;;;;3.67;3.50;;;12.70;97.30;;;;;;5035438;28;20419;-82
2022/10/21 07:44:07;;;;;;;7.47;4.53;;;12.80;97.30;;;;;;5025426;28;20428;-85
2022/10/21 07:46:34;;;;;;;2.67;2.33;;;12.80;97.30;;;;;;5020985;28;20523;-84
2022/10/21 07:48:59;;;;;;;2.50;2.30;;;12.90;97.30;;;;;;5028035;28;20851;-84
2022/10/21 07:51:25;;;;;;;4.40;3.13;;;12.90;97.30;;;;;;5033535;28;20475;-84
2022/10/21 07:53:54;;;;;;;2.50;2.30;;;13.00;97.30;;;;;;5034361;28;20200;-84
2022/10/21 07:56:25;;;;;;;3.10;2.80;;;13.00;97.30;;;;;;5035058;28;20407;-84
2022/10/21 07:58:51;;;;;;;2.20;2.00;;;13.00;97.30;;;;;;5035694;28;20450;-85
2022/10/21 08:01:17;;;;;;;4.10;2.60;;;13.00;97.30;;;;;;5035130;28;20423;-83
2022/10/21 08:03:44;;;;;;;2.00;1.80;;;13.00;97.30;;;;;;5035017;28;20169;-84
2022/10/21 08:06:11;;;;;;;5.80;3.40;;;13.00;97.30;;;;;;5034456;28;20451;-84
2022/10/21 08:08:37;;;;;;;8.80;2.33;;;13.00;97.30;;;;;;5033706;28;20439;-84
2022/10/21 08:11:03;;;;;;;3.23;2.87;;;13.00;97.30;;;;;;5034292;28;20423;-84
2022/10/21 08:13:33;;;;;;;4.33;2.83;;;13.00;97.30;;;;;;5025559;28;20411;-84
2022/10/21 08:15:59;;;;;;;4.53;2.83;;;13.00;97.30;;;;;;5014256;28;20458;-85
2022/10/21 08:18:25;;;;;;;2.40;2.07;;;13.10;97.30;;;;;;5029635;28;20457;-87
2022/10/21 08:20:51;;;;;;;3.13;2.93;;;13.00;97.30;;;;;;5033827;28;20184;-87
2022/10/21 08:23:19;;;;;;;5.73;2.87;;;13.00;97.30;;;;;;5032170;28;20412;-85
2022/10/21 08:25:48;;;;;;;29.33;3.07;;;13.00;97.30;;;;;;5032453;28;20246;-85
2022/10/21 08:28:14;;;;;;;2.33;2.13;;;13.00;97.30;;;;;;5024027;28;20460;-84
2022/10/21 08:30:40;;;;;;;4.67;3.13;;;13.10;97.30;;;;;;5013105;28;21132;-84
2022/10/21 08:33:06;;;;;;;2.27;2.10;;;13.30;97.30;;;;;;5011147;28;20170;-84
2022/10/21 08:35:32;;;;;;;3.50;2.33;;;13.30;97.30;;;;;;5019990;28;20991;-87
2022/10/21 08:37:58;;;;;;;6.20;3.50;;;13.30;97.30;;;;;;5020582;28;20308;-85
2022/10/21 08:40:23;;;;;;;2.80;2.60;;;13.30;97.30;;;;;;5021264;28;20459;-86
2022/10/21 08:42:49;;;;;;;3.57;1.97;;;13.30;97.30;;;;;;5024730;28;20679;-84
2022/10/21 08:45:40;;;;;;;3.67;2.80;;;13.40;97.30;;;;;;5022539;28;20213;-84
2022/10/21 08:48:12;;;;;;;10.37;4.00;;;13.40;97.30;;;;;;5022420;28;20185;-85
2022/10/21 08:50:44;;;;;;;5.40;3.47;;;13.40;97.30;;;;;;5019314;28;20795;-85
2022/10/21 08:53:24;;;;;;;2.60;2.40;;;13.40;97.30;;;;;;5024947;28;20415;-85
2022/10/21 08:55:55;;;;;;;5.87;2.90;;;13.40;97.30;;;;;;5026091;28;20948;-85
2022/10/21 08:58:23;;;;;;;6.10;3.30;;;13.50;97.30;;;;;;5015037;28;20439;-85
2022/10/21 09:01:02;;;;;;;4.90;3.33;;;13.50;97.30;;;;;;5022616;28;20502;-85
2022/10/21 09:03:45;;;;;;;7.77;3.17;;;13.60;97.30;;;;;;5019951;28;20754;-85
2022/10/21 09:06:26;;;;;;;6.40;2.63;;;13.70;97.30;;;;;;5019877;28;20455;-84
2022/10/21 09:09:15;;;;;;;3.13;2.50;;;13.80;97.30;;;;;;5024115;28;20935;-85
2022/10/21 09:11:52;;;;;;;5.27;3.10;;;13.90;97.30;;;;;;5028214;28;20507;-86
2022/10/21 09:14:57;;;;;;;5.47;2.63;;;13.90;97.30;;;;;;5029744;28;20999;-86
2022/10/21 09:17:34;;;;;;;5.40;2.87;;;14.00;97.30;;;;;;5029524;28;20844;-88
2022/10/21 09:20:27;;;;;;;4.50;2.30;;;14.10;97.30;;;;;;5030808;28;20433;-85
2022/10/21 09:23:05;;;;;;;4.73;2.60;;;14.20;97.30;;;;;;5030921;28;20411;-85
2022/10/21 09:25:55;;;;;;;9.10;3.23;;;14.20;97.30;;;;;;5028583;28;20455;-86
2022/10/21 09:28:23;;;;;;;4.00;2.70;;;14.30;97.30;;;;;;5013794;28;20444;-85
2022/10/21 09:30:50;;;;;;;3.43;2.00;;;14.40;97.30;;;;;;5010111;28;20467;-84
2022/10/21 09:33:28;;;;;;;6.67;3.73;;;14.50;97.30;;;;;;5010356;28;20923;-84
2022/10/21 09:36:06;;;;;;;5.37;3.13;;;14.50;97.30;;;;;;5023544;28;20481;-84
2022/10/21 09:39:01;;;;;;;5.63;3.63;;;14.60;97.30;;;;;;5028812;28;20454;-89
2022/10/21 09:41:41;;;;;;;4.00;2.67;;;14.70;97.30;;;;;;5030202;28;20521;-85
2022/10/21 09:44:17;;;;;;;4.67;3.30;;;14.80;97.30;;;;;;5031822;28;20771;-85
2022/10/21 09:46:47;;;;;;;6.30;4.53;;;14.90;97.30;;;;;;5033818;28;20490;-85
2022/10/21 09:49:26;;;;;;;3.13;2.30;;;15.10;97.30;;;;;;5034423;28;20423;-85
2022/10/21 09:51:52;;;;;;;2.60;1.83;;;15.40;97.30;;;;;;5031932;28;20430;-84
2022/10/21 09:54:21;;;;;;;5.30;4.53;;;15.60;97.30;;;;;;5029581;28;20418;-83
2022/10/21 09:57:07;;;;;;;3.30;2.33;;;15.70;97.30;;;;;;5033390;28;20449;-81
2022/10/21 09:59:36;;;;;;;5.10;3.13;;;15.80;97.30;;;;;;5024192;28;20444;-80
2022/10/21 10:02:06;;;;;;;4.20;2.60;;;15.90;97.30;;;;;;5026906;28;20789;-83
2022/10/21 10:04:33;;;;;;;4.50;2.67;;;16.00;97.30;;;;;;5030684;28;20841;-83
2022/10/21 10:07:02;;;;;;;2.20;2.00;;;16.00;97.30;;;;;;5021576;28;20459;-80
2022/10/21 10:09:29;;;;;;;3.30;3.10;;;16.10;97.30;;;;;;5030138;28;20569;-79
2022/10/21 10:12:03;;;;;;;6.57;3.30;;;16.20;97.30;;;;;;5032336;28;20423;-82
2022/10/21 10:14:43;;;;;;;9.20;4.73;;;16.10;97.30;;;;;;5022359;28;20432;-79
2022/10/21 10:17:37;;;;;;;2.90;2.50;;;16.10;97.30;;;;;;5028536;28;20441;-83
2022/10/21 10:20:02;;;;;;;3.90;2.30;;;16.10;97.30;;;;;;5027869;28;20451;-84
2022/10/21 10:22:32;;;;;;;3.50;2.70;;;16.10;97.30;;;;;;5028654;28;20526;-80
2022/10/21 10:25:10;;;;;;;3.33;2.40;;;16.20;97.30;;;;;;5023820;28;20582;-81
2022/10/21 10:27:48;;;;;;;4.07;2.80;;;16.20;97.30;;;;;;5023045;28;20426;-79
2022/10/21 10:30:15;;;;;;;5.73;2.43;;;16.20;97.30;;;;;;5028229;28;20807;-80
2022/10/21 10:32:41;;;;;;;3.90;2.97;;;16.20;97.30;;;;;;5024448;28;20835;-83
2022/10/21 10:35:16;;;;;;;2.70;2.00;;;16.20;97.30;;;;;;5021909;28;20584;-82
2022/10/21 10:37:46;;;;;;;3.50;3.30;;;16.20;97.30;;;;;;5025917;28;20180;-81
2022/10/21 10:40:24;;;;;;;9.10;4.33;;;16.20;97.30;;;;;;5016261;28;20441;-81
2022/10/21 10:42:55;;;;;;;3.50;2.60;;;16.20;97.30;;;;;;5033856;28;20442;-82
2022/10/21 10:45:22;;;;;;;12.67;3.67;;;16.20;97.30;;;;;;5030721;28;20476;-81
2022/10/21 10:47:53;;;;;;;8.37;3.83;;;16.20;97.30;;;;;;5023212;28;20521;-81
2022/10/21 10:50:43;;;;;;;2.67;2.47;;;16.30;97.30;;;;;;5017448;28;20705;-80
2022/10/21 10:53:20;;;;;;;4.23;3.43;;;16.30;97.30;;;;;;5022740;28;20597;-82
2022/10/21 10:56:08;;;;;;;5.97;3.73;;;16.30;97.30;;;;;;5021823;28;20415;-84
2022/10/21 10:58:44;;;;;;;3.27;2.67;;;16.30;97.30;;;;;;4991581;28;20545;-86
2022/10/21 11:01:15;;;;;;;3.67;2.90;;;16.40;97.30;;;;;;5026768;28;20495;-88
2022/10/21 11:03:51;;;;;;;4.70;3.60;;;16.50;97.30;;;;;;5040443;28;20408;-87
2022/10/21 11:06:26;;;;;;;5.83;4.57;;;16.60;97.30;;;;;;5040215;28;20459;-89
2022/10/21 11:08:56;;;;;;;3.20;2.87;;;16.70;97.30;;;;;;5030161;28;21213;-84
2022/10/21 11:11:42;;;;;;;21.17;4.00;;;16.90;97.30;;;;;;5025683;28;20485;-87
2022/10/21 11:14:16;;;;;;;14.87;4.10;;;17.10;97.30;;;;;;5054267;28;20952;-85
2022/10/21 11:16:55;;;;;;;4.73;3.27;;;17.30;97.30;;;;;;5023358;28;20510;-85
2022/10/21 11:19:46;;;;;;;2.77;2.57;;;17.40;97.30;;;;;;5028488;28;20521;-89
2022/10/21 11:22:24;;;;;;;3.33;3.13;;;17.40;97.30;;;;;;5022639;28;20611;-86
2022/10/21 11:24:54;;;;;;;6.77;4.17;;;17.50;97.30;;;;;;5027561;28;20443;-85
2022/10/21 11:27:47;;;;;;;4.30;3.23;;;17.40;97.30;;;;;;5023722;28;20514;-85
2022/10/21 11:30:39;;;;;;;4.33;2.60;;;17.40;97.30;;;;;;5026400;28;20428;-85
2022/10/21 11:33:32;;;;;;;3.60;3.40;;;17.30;97.30;;;;;;5023673;28;20422;-85
2022/10/21 11:36:11;;;;;;;2.97;2.77;;;17.30;97.30;;;;;;5029147;28;20412;-86
2022/10/21 11:39:07;;;;;;;6.43;2.53;;;17.30;97.30;;;;;;5027842;28;20439;-87
2022/10/21 11:41:43;;;;;;;5.20;3.00;;;17.30;97.30;;;;;;5027211;28;20435;-86
2022/10/21 11:44:18;;;;;;;3.47;3.27;;;17.40;97.30;;;;;;5023612;28;20422;-85
2022/10/21 11:47:17;;;;;;;4.07;3.13;;;17.50;97.30;;;;;;5028505;28;20492;-85
2022/10/21 11:50:11;;;;;;;4.47;2.60;;;17.50;97.30;;;;;;5017924;28;20450;-85
2022/10/21 11:52:45;;;;;;;2.90;2.70;;;17.50;97.30;;;;;;5017221;28;20783;-85
2022/10/21 11:55:38;;;;;;;4.60;2.90;;;17.40;97.30;;;;;;5020224;28;20514;-86
2022/10/21 11:58:35;;;;;;;5.13;2.80;;;17.40;97.30;;;;;;5019709;28;20436;-86
2022/10/21 12:01:22;;;;;;;2.80;2.60;;;17.30;97.30;;;;;;5022115;28;20435;-85
2022/10/21 12:04:17;;;;;;;5.27;3.33;;;17.20;97.30;;;;;;5027648;28;20777;-85
2022/10/21 12:07:14;;;;;;;10.57;3.40;;;17.20;97.30;;;;;;5029223;28;20462;-85
2022/10/21 12:09:53;;;;;;;2.60;2.30;;;17.10;97.30;;;;;;5064516;22;20486;-83
2022/10/21 12:12:25;;;;;;;3.77;2.50;;;17.00;97.30;;;;;;5041048;28;20975;-82
2022/10/21 12:14:56;;;;;;;6.50;3.00;;;17.00;97.30;;;;;;5046856;28;20423;-83
2022/10/21 12:17:23;;;;;;;6.83;3.20;;;17.00;97.30;;;;;;5030021;28;20415;-83
2022/10/21 12:19:58;;;;;;;3.10;2.87;;;17.00;97.30;;;;;;5018643;28;20436;-83
2022/10/21 12:22:26;;;;;;;5.90;3.10;;;16.90;97.30;;;;;;5010503;28;20930;-83
2022/10/21 12:25:10;;;;;;;7.17;3.70;;;16.80;97.30;;;;;;5009902;28;20869;-82
2022/10/21 12:27:50;;;;;;;3.23;1.63;;;16.70;97.30;;;;;;5010027;28;20551;-82
2022/10/21 12:30:21;;;;;;;4.10;3.50;;;16.60;97.30;;;;;;5009852;28;20440;-82
2022/10/21 12:33:22;;;;;;;12.47;3.53;;;16.60;97.30;;;;;;5011300;28;20980;-83
2022/10/21 12:36:10;;;;;;;4.60;4.00;;;16.50;97.30;;;;;;4972436;28;20461;-83
2022/10/21 12:38:56;;;;;;;2.70;2.50;;;16.40;97.30;;;;;;5009942;28;20464;-84
2022/10/21 12:41:38;;;;;;;4.10;3.40;;;16.20;97.30;;;;;;5011093;28;20938;-83
2022/10/21 12:44:19;;;;;;;3.00;2.47;;;16.00;97.30;;;;;;5015979;28;20432;-83
2022/10/21 12:46:49;;;;;;;4.80;3.13;;;15.90;97.30;;;;;;5010945;28;21004;-83
2022/10/21 12:49:34;;;;;;;8.80;4.40;;;15.90;97.30;;;;;;5026725;28;20424;-83
2022/10/21 12:52:20;;;;;;;5.10;3.90;;;15.80;97.30;;;;;;5029503;28;20421;-84
2022/10/21 12:54:57;;;;;;;5.47;3.17;;;15.70;97.30;;;;;;5029314;28;20419;-83
2022/10/21 12:57:38;;;;;;;4.00;3.80;;;15.60;97.30;;;;;;5029564;28;20418;-83
2022/10/21 13:00:26;;;;;;;6.20;2.57;;;15.60;97.30;;;;;;5029279;28;20439;-84
2022/10/21 13:03:01;;;;;;;5.03;4.80;;;15.60;97.30;;;;;;5029491;28;20876;-83
2022/10/21 13:05:36;;;;;;;6.43;4.30;;;15.50;97.30;;;;;;5030470;28;20585;-84
2022/10/21 13:08:23;;;;;;;4.87;3.13;;;15.50;97.30;;;;;;5029233;28;20414;-84
2022/10/21 13:11:06;;;;;;;3.27;3.00;;;15.50;97.30;;;;;;5025108;28;20471;-82
2022/10/21 13:13:45;;;;;;;26.93;5.20;;;15.40;97.30;;;;;;5028673;28;20450;-84